createdAt,value
2019-05-07T00:00:53.733Z,6.03
2019-05-07T00:03:23.149Z,6.40
2019-05-07T00:05:53.902Z,5.70
2019-05-07T00:08:23.551Z,5.63
2019-05-07T00:10:53.059Z,5.70
2019-05-07T00:13:22.795Z,5.73
2019-05-07T00:15:52.898Z,5.80
2019-05-07T00:18:22.934Z,5.40
2019-05-07T00:20:53.030Z,5.83
2019-05-07T00:23:23.166Z,5.70
2019-05-07T00:25:53.004Z,5.77
2019-05-07T00:28:23.140Z,5.20
2019-05-07T00:30:52.609Z,5.27
2019-05-07T00:33:22.863Z,5.90
2019-05-07T00:35:56.907Z,5.70
2019-05-07T00:38:27.959Z,4.93
2019-05-07T00:41:35.832Z,5.10
2019-05-07T00:44:06.783Z,4.90
2019-05-07T00:46:36.313Z,5.00
2019-05-07T00:49:05.732Z,4.77
2019-05-07T00:51:35.284Z,5.23
2019-05-07T00:54:05.729Z,4.83
2019-05-07T00:56:35.128Z,4.90
2019-05-07T00:59:04.644Z,4.93
2019-05-07T01:01:34.810Z,4.97
2019-05-07T01:04:04.456Z,4.27
2019-05-07T01:06:33.846Z,5.33
2019-05-07T01:09:03.786Z,5.70
2019-05-07T01:11:33.604Z,7.07
2019-05-07T01:14:03.212Z,10.87
2019-05-07T01:16:33.129Z,17.23
2019-05-07T01:19:02.587Z,12.00
2019-05-07T01:21:32.630Z,9.10
2019-05-07T01:24:03.319Z,7.20
2019-05-07T01:26:34.512Z,5.83
2019-05-07T01:29:03.990Z,5.17
2019-05-07T01:31:38.358Z,5.90
2019-05-07T01:34:09.420Z,5.53
2019-05-07T01:36:38.824Z,5.40
2019-05-07T01:39:08.560Z,5.40
2019-05-07T01:41:38.094Z,5.67
2019-05-07T01:44:07.474Z,5.97
2019-05-07T01:46:36.909Z,5.93
2019-05-07T01:49:06.303Z,5.80
2019-05-07T01:51:35.719Z,6.13
2019-05-07T01:54:05.176Z,5.80
2019-05-07T01:56:34.711Z,5.97
2019-05-07T01:59:04.270Z,5.77
2019-05-07T02:01:35.915Z,5.40
2019-05-07T02:04:06.536Z,5.50
2019-05-07T02:06:37.583Z,5.67
2019-05-07T02:09:24.639Z,6.47
2019-05-07T02:12:02.433Z,6.00
2019-05-07T02:14:33.053Z,5.83
2019-05-07T02:17:03.103Z,6.00
2019-05-07T02:19:35.235Z,5.50
2019-05-07T02:22:04.782Z,5.73
2019-05-07T02:24:36.441Z,5.97
2019-05-07T02:27:07.435Z,5.77
2019-05-07T02:29:38.235Z,5.90
2019-05-07T02:32:07.732Z,5.73
2019-05-07T02:34:37.125Z,6.70
2019-05-07T02:37:08.266Z,6.97
2019-05-07T02:39:44.163Z,7.87
2019-05-07T02:42:12.991Z,7.17
2019-05-07T02:45:04.152Z,8.07
2019-05-07T02:47:33.686Z,7.13
2019-05-07T02:50:13.070Z,7.23
2019-05-07T02:52:53.588Z,6.93
2019-05-07T02:55:39.750Z,6.40
2019-05-07T02:58:09.141Z,5.27
2019-05-07T03:00:38.723Z,4.90
2019-05-07T03:03:08.123Z,5.17
2019-05-07T03:05:37.741Z,5.40
2019-05-07T03:08:07.370Z,5.83
2019-05-07T03:10:36.784Z,5.70
2019-05-07T03:13:06.419Z,5.80
2019-05-07T03:15:36.026Z,6.60
2019-05-07T03:18:05.648Z,6.70
2019-05-07T03:20:53.245Z,6.50
2019-05-07T03:23:23.168Z,6.60
2019-05-07T03:25:57.042Z,6.83
2019-05-07T03:28:26.497Z,6.27
2019-05-07T03:31:05.892Z,6.60
2019-05-07T03:33:36.916Z,6.97
2019-05-07T03:36:08.306Z,6.67
2019-05-07T03:38:37.659Z,6.17
2019-05-07T03:41:07.113Z,6.13
2019-05-07T03:43:36.616Z,6.60
2019-05-07T03:46:07.652Z,7.00
2019-05-07T03:48:38.933Z,6.53
2019-05-07T03:51:08.341Z,6.78
2019-05-07T03:53:37.732Z,6.80
2019-05-07T03:56:07.122Z,7.20
2019-05-07T03:58:36.539Z,6.37
2019-05-07T04:01:06.030Z,5.83
2019-05-07T04:03:35.433Z,5.13
2019-05-07T04:06:05.044Z,5.57
2019-05-07T04:08:34.456Z,6.90
2019-05-07T04:11:04.246Z,6.10
2019-05-07T04:13:34.055Z,6.20
2019-05-07T04:16:04.421Z,5.97
2019-05-07T04:18:34.210Z,6.40
2019-05-07T04:21:04.250Z,6.53
2019-05-07T04:23:34.550Z,6.20
2019-05-07T04:26:05.662Z,6.53
2019-05-07T04:28:39.237Z,6.20
2019-05-07T04:31:08.644Z,6.70
2019-05-07T04:33:39.687Z,6.67
2019-05-07T04:36:22.773Z,6.20
2019-05-07T04:38:53.222Z,6.00
2019-05-07T04:41:23.467Z,5.77
2019-05-07T04:43:54.066Z,6.17
2019-05-07T04:46:24.009Z,5.90
2019-05-07T04:48:53.443Z,6.57
2019-05-07T04:51:24.489Z,6.03
2019-05-07T04:53:54.362Z,5.77
2019-05-07T04:56:24.139Z,6.27
2019-05-07T04:58:53.561Z,7.77
2019-05-07T05:01:24.622Z,7.67
2019-05-07T05:03:54.289Z,7.63
2019-05-07T05:06:24.347Z,7.70
2019-05-07T05:08:56.317Z,8.60
2019-05-07T05:11:25.114Z,9.10
2019-05-07T05:13:54.515Z,9.33
2019-05-07T05:16:27.239Z,8.93
2019-05-07T05:18:57.238Z,8.53
2019-05-07T05:21:28.302Z,8.37
2019-05-07T05:24:05.046Z,8.47
2019-05-07T05:26:34.454Z,8.43
2019-05-07T05:29:04.714Z,9.83
2019-05-07T05:31:34.124Z,7.83
2019-05-07T05:34:03.532Z,8.60
2019-05-07T05:36:33.191Z,8.77
2019-05-07T05:39:02.755Z,9.33
2019-05-07T05:41:34.052Z,8.20
2019-05-07T05:44:09.333Z,7.63
2019-05-07T05:46:38.753Z,7.70
2019-05-07T05:49:08.172Z,8.50
2019-05-07T05:51:43.020Z,8.00
2019-05-07T05:54:26.014Z,7.40
2019-05-07T05:57:02.698Z,7.57
2019-05-07T05:59:47.974Z,7.60
2019-05-07T06:02:24.804Z,7.40
2019-05-07T06:05:12.624Z,7.97
2019-05-07T06:07:43.717Z,8.47
2019-05-07T06:10:15.000Z,7.77
2019-05-07T06:12:46.026Z,8.30
2019-05-07T06:15:22.167Z,9.50
2019-05-07T06:17:55.341Z,9.17
2019-05-07T06:20:35.247Z,9.40
2019-05-07T06:23:18.264Z,9.23
2019-05-07T06:25:48.720Z,10.30
2019-05-07T06:28:18.121Z,9.63
2019-05-07T06:30:48.524Z,9.70
2019-05-07T06:33:17.979Z,11.03
2019-05-07T06:35:47.394Z,9.87
2019-05-07T06:38:16.803Z,9.67
2019-05-07T06:41:04.277Z,9.37
2019-05-07T06:43:38.196Z,8.27
2019-05-07T06:46:08.002Z,9.30
2019-05-07T06:48:42.201Z,8.90
2019-05-07T06:51:08.579Z,9.50
2019-05-07T06:53:38.003Z,9.03
2019-05-07T06:56:08.968Z,8.23
2019-05-07T06:58:43.016Z,7.90
2019-05-07T07:01:29.374Z,9.23
2019-05-07T07:04:09.375Z,7.83
2019-05-07T07:06:43.488Z,8.27
2019-05-07T07:09:17.243Z,8.73
2019-05-07T07:11:52.933Z,8.77
2019-05-07T07:14:22.795Z,7.87
2019-05-07T07:16:52.746Z,7.53
2019-05-07T07:19:23.321Z,6.60
2019-05-07T07:21:52.964Z,7.60
2019-05-07T07:24:22.417Z,6.70
2019-05-07T07:26:52.844Z,6.73
2019-05-07T07:29:23.943Z,7.23
2019-05-07T07:31:55.082Z,6.43
2019-05-07T07:34:25.555Z,6.90
2019-05-07T07:37:05.993Z,7.63
2019-05-07T07:39:32.333Z,7.40
2019-05-07T07:42:06.041Z,7.47
2019-05-07T07:44:35.439Z,6.73
2019-05-07T07:47:05.038Z,8.13
2019-05-07T07:49:34.600Z,7.10
2019-05-07T07:52:04.100Z,7.60
2019-05-07T07:54:33.509Z,7.53
2019-05-07T07:57:04.593Z,7.70
2019-05-07T07:59:42.128Z,7.83
2019-05-07T08:02:13.545Z,8.00
2019-05-07T08:04:42.945Z,8.00
2019-05-07T08:07:12.594Z,7.73
2019-05-07T08:09:42.894Z,7.83
2019-05-07T08:12:12.826Z,7.70
2019-05-07T08:14:42.929Z,7.70
2019-05-07T08:17:13.113Z,6.90
2019-05-07T08:19:43.179Z,6.17
2019-05-07T08:22:12.622Z,6.40
2019-05-07T08:24:42.724Z,6.00
2019-05-07T08:27:15.115Z,6.30
2019-05-07T08:29:43.707Z,6.80
2019-05-07T08:32:14.774Z,6.47
2019-05-07T08:34:48.238Z,6.17
2019-05-07T08:37:17.665Z,5.53
2019-05-07T08:39:47.067Z,5.73
2019-05-07T08:42:16.487Z,5.20
2019-05-07T08:45:03.053Z,5.10
2019-05-07T08:47:36.769Z,5.70
2019-05-07T08:50:07.151Z,5.27
2019-05-07T08:52:36.623Z,5.00
2019-05-07T08:55:07.887Z,4.40
2019-05-07T08:57:37.520Z,4.30
2019-05-07T09:00:07.585Z,3.47
2019-05-07T09:02:36.955Z,4.00
2019-05-07T09:05:09.236Z,4.10
2019-05-07T09:07:38.499Z,4.27
2019-05-07T09:10:08.252Z,4.20
2019-05-07T09:12:37.899Z,4.77
2019-05-07T09:15:08.360Z,4.77
2019-05-07T09:17:37.839Z,4.07
2019-05-07T09:20:09.248Z,4.70
2019-05-07T09:22:38.680Z,5.37
2019-05-07T09:25:08.636Z,4.83
2019-05-07T09:27:45.456Z,3.90
2019-05-07T09:30:34.000Z,4.70
2019-05-07T09:33:05.130Z,4.30
2019-05-07T09:35:39.819Z,4.83
2019-05-07T09:38:09.442Z,4.40
2019-05-07T09:40:38.832Z,3.43
2019-05-07T09:43:08.338Z,3.70
2019-05-07T09:45:37.740Z,3.73
2019-05-07T09:48:07.401Z,3.40
2019-05-07T09:50:36.789Z,3.60
2019-05-07T09:53:06.448Z,3.70
2019-05-07T09:55:35.848Z,2.60
2019-05-07T09:58:05.385Z,2.50
2019-05-07T10:00:35.242Z,2.70
2019-05-07T10:03:05.073Z,2.90
2019-05-07T10:05:34.566Z,3.23
2019-05-07T10:08:04.404Z,3.30
2019-05-07T10:10:33.889Z,3.53
2019-05-07T10:13:08.316Z,3.03
2019-05-07T10:15:37.941Z,3.30
2019-05-07T10:18:15.012Z,2.97
2019-05-07T10:20:44.549Z,3.63
2019-05-07T10:23:18.668Z,3.13
2019-05-07T10:25:49.026Z,3.23
2019-05-07T10:28:19.361Z,3.77
2019-05-07T10:30:48.771Z,3.00
2019-05-07T10:33:18.465Z,3.80
2019-05-07T10:35:47.895Z,3.77
2019-05-07T10:38:17.659Z,3.97
2019-05-07T10:40:47.209Z,3.50
2019-05-07T10:43:16.608Z,3.43
2019-05-07T10:45:52.056Z,3.60
2019-05-07T10:48:39.415Z,3.30
2019-05-07T10:51:08.990Z,3.70
2019-05-07T10:53:38.389Z,3.90
2019-05-07T10:56:07.810Z,3.50
2019-05-07T10:58:37.205Z,3.87
2019-05-07T11:01:06.957Z,3.97
2019-05-07T11:03:37.121Z,3.30
2019-05-07T11:06:06.546Z,3.30
2019-05-07T11:08:35.937Z,3.33
2019-05-07T11:11:05.355Z,3.77
2019-05-07T11:13:34.822Z,3.90
2019-05-07T11:16:12.612Z,3.83
2019-05-07T11:18:43.721Z,3.23
2019-05-07T11:21:13.264Z,3.17
2019-05-07T11:23:42.662Z,3.43
2019-05-07T11:26:12.080Z,3.63
2019-05-07T11:28:41.471Z,3.10
2019-05-07T11:31:12.393Z,3.23
2019-05-07T11:33:41.966Z,3.40
2019-05-07T11:36:11.391Z,3.10
2019-05-07T11:38:41.832Z,3.63
2019-05-07T11:41:12.781Z,3.20
2019-05-07T11:43:46.519Z,3.37
2019-05-07T11:46:22.195Z,2.93
2019-05-07T11:48:53.348Z,2.90
2019-05-07T11:51:24.423Z,2.53
2019-05-07T11:54:12.343Z,2.73
2019-05-07T11:56:42.243Z,2.67
2019-05-07T11:59:13.398Z,3.13
2019-05-07T12:01:48.285Z,2.27
2019-05-07T12:04:17.764Z,2.80
2019-05-07T12:06:47.295Z,3.20
2019-05-07T12:09:17.091Z,3.30
2019-05-07T12:11:46.566Z,3.10
2019-05-07T12:14:28.116Z,3.17
2019-05-07T12:16:47.127Z,2.80
2019-05-07T12:19:16.819Z,2.80
2019-05-07T12:21:46.650Z,2.83
2019-05-07T12:24:16.676Z,2.60
2019-05-07T12:26:46.219Z,3.10
2019-05-07T12:29:15.637Z,3.10
2019-05-07T12:31:46.668Z,3.47
2019-05-07T12:34:17.740Z,3.03
2019-05-07T12:36:47.253Z,2.90
2019-05-07T12:39:16.659Z,2.70
2019-05-07T12:41:46.064Z,2.90
2019-05-07T12:44:15.544Z,2.90
2019-05-07T12:46:44.946Z,3.00
2019-05-07T12:49:14.352Z,2.97
2019-05-07T12:51:54.595Z,2.90
2019-05-07T12:54:25.722Z,2.50
2019-05-07T12:56:55.124Z,2.90
2019-05-07T12:59:24.610Z,2.80
2019-05-07T13:02:17.826Z,2.73
2019-05-07T13:04:36.564Z,2.87
2019-05-07T13:07:07.684Z,3.20
2019-05-07T13:09:37.089Z,2.70
2019-05-07T13:12:06.497Z,2.87
2019-05-07T13:14:35.910Z,2.90
2019-05-07T13:17:05.367Z,3.30
2019-05-07T13:19:34.797Z,2.87
2019-05-07T13:22:04.343Z,2.90
2019-05-07T13:24:33.759Z,2.80
2019-05-07T13:27:03.390Z,2.90
2019-05-07T13:29:32.832Z,2.47
2019-05-07T13:32:03.841Z,2.80
2019-05-07T13:34:34.291Z,3.07
2019-05-07T13:37:17.295Z,2.90
2019-05-07T13:39:51.993Z,3.30
2019-05-07T13:42:38.646Z,3.23
2019-05-07T13:47:54.273Z,3.00
2019-05-07T13:50:23.812Z,3.50
2019-05-07T13:52:53.265Z,2.90
2019-05-07T13:55:22.696Z,2.70
2019-05-07T13:57:52.502Z,2.27
2019-05-07T14:00:23.883Z,2.50
2019-05-07T14:02:54.856Z,2.47
2019-05-07T14:05:24.461Z,2.27
2019-05-07T14:07:53.997Z,2.10
2019-05-07T14:10:23.496Z,1.90
2019-05-07T14:12:52.892Z,2.40
2019-05-07T14:15:23.152Z,2.40
2019-05-07T14:17:54.957Z,2.37
2019-05-07T14:20:23.960Z,2.40
2019-05-07T14:22:53.370Z,2.33
2019-05-07T14:25:24.236Z,2.30
2019-05-07T14:27:53.659Z,2.20
2019-05-07T14:30:24.544Z,2.37
2019-05-07T14:32:58.530Z,2.27
2019-05-07T14:35:38.360Z,2.63
2019-05-07T14:38:09.401Z,2.73
2019-05-07T14:40:38.821Z,2.73
2019-05-07T14:43:09.854Z,2.63
2019-05-07T14:45:41.959Z,2.60
2019-05-07T14:48:12.180Z,2.10
2019-05-07T14:50:44.831Z,2.50
2019-05-07T14:53:13.157Z,2.50
2019-05-07T14:55:42.673Z,2.47
2019-05-07T14:58:12.525Z,2.63
2019-05-07T15:00:42.865Z,2.60
2019-05-07T15:03:12.665Z,2.37
2019-05-07T15:05:42.441Z,2.27
2019-05-07T15:08:14.421Z,2.20
2019-05-07T15:10:43.123Z,2.07
2019-05-07T15:13:12.870Z,2.37
2019-05-07T15:15:42.389Z,2.30
2019-05-07T15:18:16.476Z,2.30
2019-05-07T15:20:45.977Z,2.33
2019-05-07T15:23:29.279Z,2.30
2019-05-07T15:26:01.867Z,1.80
2019-05-07T15:28:32.351Z,1.97
2019-05-07T15:31:09.298Z,2.00
2019-05-07T15:33:38.690Z,1.87
2019-05-07T15:36:08.132Z,1.73
2019-05-07T15:38:37.590Z,1.90
2019-05-07T15:41:07.231Z,2.10
2019-05-07T15:43:36.703Z,1.90
2019-05-07T15:46:06.193Z,2.00
2019-05-07T15:48:35.739Z,2.10
2019-05-07T15:51:05.165Z,2.03
2019-05-07T15:53:52.365Z,2.07
2019-05-07T15:56:22.028Z,2.10
2019-05-07T15:58:51.824Z,2.10
2019-05-07T16:01:22.158Z,2.20
2019-05-07T16:03:54.970Z,2.33
2019-05-07T16:06:22.927Z,2.00
2019-05-07T16:08:53.966Z,2.13
2019-05-07T16:11:23.590Z,2.57
2019-05-07T16:14:06.197Z,2.30
2019-05-07T16:16:37.259Z,2.23
2019-05-07T16:19:14.107Z,2.00
2019-05-07T16:21:43.532Z,1.90
2019-05-07T16:24:13.000Z,1.90
2019-05-07T16:26:42.901Z,1.90
2019-05-07T16:29:13.266Z,2.10
2019-05-07T16:31:44.229Z,2.07
2019-05-07T16:34:13.934Z,1.80
2019-05-07T16:36:43.340Z,1.87
2019-05-07T16:39:12.738Z,2.03
2019-05-07T16:41:42.449Z,2.37
2019-05-07T16:44:12.340Z,2.40
2019-05-07T16:46:42.271Z,1.97
2019-05-07T16:49:12.326Z,2.20
2019-05-07T16:51:44.568Z,2.20
2019-05-07T16:54:12.967Z,2.30
2019-05-07T16:57:03.130Z,2.40
2019-05-07T16:59:32.704Z,2.07
2019-05-07T17:02:03.779Z,3.10
2019-05-07T17:04:33.185Z,9.57
2019-05-07T17:07:04.264Z,5.20
2019-05-07T17:09:35.256Z,4.17
2019-05-07T17:12:06.616Z,7.33
2019-05-07T17:14:36.093Z,3.17
2019-05-07T17:17:05.507Z,2.40
2019-05-07T17:19:34.910Z,2.30
2019-05-07T17:22:06.409Z,3.43
2019-05-07T17:24:35.498Z,3.60
2019-05-07T17:27:04.900Z,3.40
2019-05-07T17:29:34.373Z,13.70
2019-05-07T17:32:03.769Z,5.03
2019-05-07T17:34:33.182Z,2.30
2019-05-07T17:37:02.588Z,2.60
2019-05-07T17:39:32.316Z,4.10
2019-05-07T17:42:02.528Z,3.07
2019-05-07T17:44:32.511Z,2.60
2019-05-07T17:47:02.179Z,2.37
2019-05-07T17:49:32.365Z,2.70
2019-05-07T17:52:02.951Z,3.53
2019-05-07T17:54:32.688Z,4.60
2019-05-07T17:57:02.194Z,4.60
2019-05-07T17:59:32.137Z,4.17
2019-05-07T18:02:09.287Z,2.67
2019-05-07T18:04:50.569Z,2.60
2019-05-07T18:07:11.939Z,2.40
2019-05-07T18:09:42.458Z,2.50
2019-05-07T18:12:12.193Z,2.73
2019-05-07T18:14:42.399Z,3.30
2019-05-07T18:17:13.553Z,5.20
2019-05-07T18:19:43.033Z,3.53
2019-05-07T18:22:12.847Z,3.67
2019-05-07T18:24:42.242Z,3.93
2019-05-07T18:27:13.273Z,3.10
2019-05-07T18:29:42.830Z,3.47
2019-05-07T18:32:12.522Z,2.73
2019-05-07T18:34:42.757Z,2.20
2019-05-07T18:37:12.596Z,2.23
2019-05-07T18:39:42.819Z,2.67
2019-05-07T18:42:12.736Z,2.60
2019-05-07T18:44:42.437Z,2.50
2019-05-07T18:47:12.934Z,2.23
2019-05-07T18:49:44.762Z,2.50
2019-05-07T18:52:13.558Z,2.20
2019-05-07T18:54:43.016Z,2.40
2019-05-07T18:57:12.380Z,3.00
2019-05-07T18:59:42.308Z,2.80
2019-05-07T19:02:11.809Z,3.13
2019-05-07T19:04:42.229Z,3.20
2019-05-07T19:07:13.182Z,2.50
2019-05-07T19:09:42.817Z,2.20
2019-05-07T19:12:14.094Z,2.50
2019-05-07T19:14:43.557Z,3.10
2019-05-07T19:17:12.959Z,3.03
2019-05-07T19:19:42.473Z,3.60
2019-05-07T19:22:11.863Z,2.40
2019-05-07T19:24:47.700Z,2.57
2019-05-07T19:27:12.679Z,2.30
2019-05-07T19:29:45.060Z,2.37
2019-05-07T19:32:14.367Z,2.23
2019-05-07T19:34:43.787Z,2.60
2019-05-07T19:37:13.222Z,2.33
2019-05-07T19:39:42.955Z,2.13
2019-05-07T19:42:12.501Z,1.93
2019-05-07T19:44:42.286Z,2.20
2019-05-07T19:47:12.677Z,2.60
2019-05-07T19:49:42.185Z,2.30
2019-05-07T19:52:12.474Z,2.87
2019-05-07T19:54:47.155Z,2.70
2019-05-07T19:57:15.743Z,2.77
2019-05-07T19:59:45.146Z,2.70
2019-05-07T20:02:16.196Z,2.57
2019-05-07T20:04:45.612Z,2.80
2019-05-07T20:07:15.046Z,2.87
2019-05-07T20:09:44.472Z,2.80
2019-05-07T20:12:13.893Z,3.40
2019-05-07T20:14:43.320Z,3.00
2019-05-07T20:17:12.818Z,3.43
2019-05-07T20:19:42.240Z,3.77
2019-05-07T20:22:12.784Z,4.00
2019-05-07T20:24:42.235Z,3.50
2019-05-07T20:27:12.463Z,3.77
2019-05-07T20:29:42.783Z,3.40
2019-05-07T20:32:12.435Z,3.50
2019-05-07T20:34:42.326Z,3.33
2019-05-07T20:37:12.886Z,12.93
2019-05-07T20:39:42.736Z,45.63
2019-05-07T20:42:12.477Z,42.53
2019-05-07T20:44:42.643Z,28.37
2019-05-07T20:47:12.767Z,52.17
2019-05-07T20:49:42.740Z,24.43
2019-05-07T20:52:12.348Z,23.27
2019-05-07T20:54:49.381Z,29.17
2019-05-07T20:57:23.132Z,36.33
2019-05-07T20:59:52.540Z,12.10
2019-05-07T21:02:22.842Z,6.20
2019-05-07T21:04:52.403Z,3.90
2019-05-07T21:07:22.291Z,4.30
2019-05-07T21:09:52.983Z,3.40
2019-05-07T21:12:22.774Z,4.13
2019-05-07T21:14:52.576Z,5.00
2019-05-07T21:17:22.720Z,5.30
2019-05-07T21:19:52.197Z,4.40
2019-05-07T21:22:22.605Z,5.07
2019-05-07T21:24:53.198Z,3.77
2019-05-07T21:27:22.919Z,3.90
2019-05-07T21:29:52.835Z,5.00
2019-05-07T21:32:23.095Z,4.90
2019-05-07T21:34:52.872Z,3.90
2019-05-07T21:37:22.887Z,3.00
2019-05-07T21:39:53.110Z,3.50
2019-05-07T21:42:22.982Z,4.80
2019-05-07T21:44:52.778Z,6.17
2019-05-07T21:47:22.392Z,6.10
2019-05-07T21:49:53.326Z,5.47
2019-05-07T21:52:24.549Z,3.80
2019-05-07T21:54:55.620Z,6.03
2019-05-07T21:57:41.983Z,6.97
2019-05-07T22:00:22.115Z,19.47
2019-05-07T22:02:52.618Z,16.30
2019-05-07T22:05:22.517Z,20.87
2019-05-07T22:07:54.219Z,9.03
2019-05-07T22:10:23.049Z,5.40
2019-05-07T22:12:54.658Z,4.20
2019-05-07T22:15:23.793Z,3.20
2019-05-07T22:21:16.867Z,3.30
2019-05-07T22:23:46.353Z,4.40
2019-05-07T22:26:22.272Z,3.87
2019-05-07T22:28:46.909Z,3.87
2019-05-07T22:31:34.131Z,4.07
2019-05-07T22:34:08.137Z,3.70
2019-05-07T22:36:37.711Z,4.50
2019-05-07T22:39:07.514Z,3.87
2019-05-07T22:41:36.925Z,3.73
2019-05-07T22:44:06.357Z,6.03
2019-05-07T22:46:35.766Z,9.40
2019-05-07T22:49:05.200Z,15.37
2019-05-07T22:51:34.589Z,5.00
2019-05-07T22:54:04.413Z,4.50
2019-05-07T22:56:52.486Z,3.83
2019-05-07T22:59:22.501Z,3.43
2019-05-07T23:01:55.076Z,3.33
2019-05-07T23:04:23.197Z,3.60
2019-05-07T23:06:52.938Z,3.60
2019-05-07T23:09:22.640Z,3.30
2019-05-07T23:11:52.619Z,3.60
2019-05-07T23:14:23.112Z,3.80
2019-05-07T23:16:55.297Z,3.50
2019-05-07T23:19:23.635Z,3.47
2019-05-07T23:21:53.065Z,3.90
2019-05-07T23:24:24.736Z,3.70
2019-05-07T23:26:53.978Z,3.93
2019-05-07T23:29:23.405Z,3.80
2019-05-07T23:31:55.267Z,3.87
2019-05-07T23:34:23.992Z,3.97
2019-05-07T23:36:53.634Z,3.97
2019-05-07T23:39:24.707Z,3.30
2019-05-07T23:41:55.744Z,3.50
2019-05-07T23:44:25.180Z,3.80
2019-05-07T23:46:54.571Z,3.83
2019-05-07T23:49:24.084Z,4.03
2019-05-07T23:51:53.483Z,3.50
2019-05-07T23:54:23.440Z,3.80
2019-05-07T23:57:05.405Z,3.90
2019-05-07T23:59:24.015Z,3.50
